Terminal Aerodrome Forecast
Issued by NWS

Home | Current Version | Previous Version | Text Only | Print | Product List | Glossary On
Versions: 1 2 3 4 5 6 7 8 9 10 11 12 13
775
FTUS45 KRIW 080528
TAFRKS
TAF
KRKS 080528Z 0806/0906 26020KT P6SM SKC
     FM081200 26015KT P6SM FEW100 SCT200
     FM081900 25015G25KT P6SM SCT250
     FM090000 25014KT P6SM SKC=

USA.gov is the U.S. government's official web portal to all federal, state and local government web resources and services.